Time;durP1;ratioP1;P1;durP2;ratioP2;P2;SDS_P1;SDS_P2;PMS_P1;PMS_P2;Temp;Humidity;BMP_temperature;BMP_pressure;BME280_temperature;BME280_humidity;BME280_pressure;Samples;Min_cycle;Max_cycle;Signal;HPM_P1;HPM_P2
2023/05/08 00:01:34;;;;;;;;;;;;;;;17.14;100.00;99733.84;5072722;28;20309;-77
2023/05/08 00:03:59;;;;;;;;;;;;;;;17.05;100.00;99734.91;5073341;28;19935;-75
2023/05/08 00:06:26;;;;;;;;;;;;;;;17.00;100.00;99731.94;5073168;28;19980;-76
2023/05/08 00:08:52;;;;;;;;;;;;;;;16.99;100.00;99730.28;5073225;28;20019;-76
2023/05/08 00:11:18;;;;;;;;;;;;;;;16.96;100.00;99733.31;5072915;28;19920;-76
2023/05/08 00:13:43;;;;;;;;;;;;;;;17.04;100.00;99733.25;5072796;28;19927;-77
2023/05/08 00:16:10;;;;;;;;;;;;;;;17.01;100.00;99729.13;5072561;28;20085;-77
2023/05/08 00:18:37;;;;;;;;;;;;;;;17.00;100.00;99731.94;5072665;28;19932;-76
2023/05/08 00:21:02;;;;;;;;;;;;;;;16.96;100.00;99731.50;5071796;28;19931;-76
2023/05/08 00:23:28;;;;;;;;;;;;;;;16.82;100.00;99728.75;5072339;28;20047;-76
2023/05/08 00:25:53;;;;;;;;;;;;;;;16.90;100.00;99731.38;5071691;28;19927;-77
2023/05/08 00:28:19;;;;;;;;;;;;;;;16.95;100.00;99734.34;5072303;28;20279;-77
2023/05/08 00:30:45;;;;;;;;;;;;;;;16.96;100.00;99730.66;5072546;28;19920;-77
2023/05/08 00:33:10;;;;;;;;;;;;;;;16.96;100.00;99720.00;5105027;28;19925;-76
2023/05/08 00:35:36;;;;;;;;;;;;;;;16.83;100.00;99730.44;5072726;28;20281;-76
2023/05/08 00:38:01;;;;;;;;;;;;;;;16.76;100.00;99733.81;5072733;28;20391;-78
2023/05/08 00:40:26;;;;;;;;;;;;;;;16.76;100.00;99724.97;5071767;28;20336;-77
2023/05/08 00:42:53;;;;;;;;;;;;;;;16.56;100.00;99729.91;5071278;28;19928;-77
2023/05/08 00:45:18;;;;;;;;;;;;;;;16.48;100.00;99727.31;5072149;28;19920;-77
2023/05/08 00:47:43;;;;;;;;;;;;;;;16.38;100.00;99732.00;5072663;28;19932;-77
2023/05/08 00:50:09;;;;;;;;;;;;;;;16.28;100.00;99726.09;5072462;28;20233;-77
2023/05/08 00:52:35;;;;;;;;;;;;;;;16.15;100.00;99733.81;5072592;28;20403;-75
2023/05/08 00:55:03;;;;;;;;;;;;;;;16.19;100.00;99735.13;5071194;28;20311;-77
2023/05/08 00:57:29;;;;;;;;;;;;;;;16.12;100.00;99737.66;5070438;28;19920;-77
2023/05/08 00:59:55;;;;;;;;;;;;;;;16.04;100.00;99739.53;5078707;22;19925;-92
2023/05/08 01:02:21;;;;;;;;;;;;;;;16.16;100.00;99744.28;5048419;28;19929;-88
2023/05/08 01:04:47;;;;;;;;;;;;;;;16.21;100.00;99741.09;5043720;28;19921;-88
2023/05/08 01:07:12;;;;;;;;;;;;;;;16.27;100.00;99745.72;5049514;28;20031;-90
2023/05/08 01:09:38;;;;;;;;;;;;;;;16.27;100.00;99745.72;5041695;28;19944;-90
2023/05/08 01:12:06;;;;;;;;;;;;;;;16.22;100.00;99740.94;5048931;28;19963;-89
2023/05/08 01:14:43;;;;;;;;;;;;;;;16.31;100.00;99747.06;5055171;28;19933;-88
2023/05/08 01:17:11;;;;;;;;;;;;;;;16.35;100.00;99743.03;5045459;28;19921;-86
2023/05/08 01:19:49;;;;;;;;;;;;;;;16.33;100.00;99745.03;5047085;28;19979;-86
2023/05/08 01:22:14;;;;;;;;;;;;;;;16.34;100.00;99738.72;5047252;28;20004;-87
2023/05/08 01:25:00;;;;;;;;;;;;;;;16.29;100.00;99746.41;5043164;28;19956;-87
2023/05/08 01:27:38;;;;;;;;;;;;;;;16.19;100.00;99748.44;5044220;28;20016;-90
2023/05/08 01:30:10;;;;;;;;;;;;;;;16.20;100.00;99744.78;5043598;28;20362;-91
2023/05/08 01:32:41;;;;;;;;;;;;;;;16.15;100.00;99747.13;5042987;28;19974;-93
2023/05/08 01:35:13;;;;;;;;;;;;;;;16.19;100.00;99748.44;5046201;28;20015;-89
2023/05/08 01:37:48;;;;;;;;;;;;;;;16.16;100.00;99754.09;5045857;28;19927;-93
2023/05/08 01:40:24;;;;;;;;;;;;;;;16.25;100.00;99753.09;5041380;28;20331;-92
2023/05/08 01:42:52;;;;;;;;;;;;;;;16.30;100.00;99750.72;5049779;28;19966;-93
2023/05/08 01:45:23;;;;;;;;;;;;;;;16.36;100.00;99750.03;5046201;28;20015;-90
2023/05/08 01:47:55;;;;;;;;;;;;;;;16.44;100.00;99752.63;5045436;28;19921;-94
2023/05/08 01:50:24;;;;;;;;;;;;;;;16.45;100.00;99753.44;5044529;28;19925;-91
2023/05/08 01:52:57;;;;;;;;;;;;;;;16.35;100.00;99748.38;5047805;28;19921;-90
2023/05/08 01:55:29;;;;;;;;;;;;;;;16.34;100.00;99741.38;5047648;28;19921;-88
2023/05/08 01:57:56;;;;;;;;;;;;;;;16.17;100.00;99739.78;5044756;28;19925;-88
2023/05/08 02:00:22;;;;;;;;;;;;;;;16.21;100.00;99738.44;5047148;28;20288;-88
2023/05/08 02:02:51;;;;;;;;;;;;;;;16.15;100.00;99741.78;5051997;28;19925;-86
2023/05/08 02:05:19;;;;;;;;;;;;;;;16.24;100.00;99746.09;5050417;28;19925;-86
2023/05/08 02:07:47;;;;;;;;;;;;;;;16.30;100.00;99745.41;5041745;28;19952;-86
2023/05/08 02:10:14;;;;;;;;;;;;;;;16.25;100.00;99747.75;5043277;28;20337;-86
2023/05/08 02:12:39;;;;;;;;;;;;;;;16.26;100.00;99749.38;5045253;28;20348;-88
2023/05/08 02:15:06;;;;;;;;;;;;;;;16.30;100.00;99745.41;5042253;28;20023;-89
2023/05/08 02:17:32;;;;;;;;;;;;;;;16.34;100.00;99739.53;5046096;28;19932;-90
2023/05/08 02:19:59;;;;;;;;;;;;;;;16.27;100.00;99745.72;5041244;28;19929;-89
2023/05/08 02:22:25;;;;;;;;;;;;;;;16.15;100.00;99736.47;5044476;28;19952;-88
2023/05/08 02:24:54;;;;;;;;;;;;;;;16.16;100.00;99744.28;5043124;28;20065;-88
2023/05/08 02:27:24;;;;;;;;;;;;;;;16.16;100.00;99743.47;5043331;28;19921;-88
2023/05/08 02:29:50;;;;;;;;;;;;;;;16.15;100.00;99736.47;5044111;28;20347;-89
2023/05/08 02:32:17;;;;;;;;;;;;;;;16.12;100.00;99736.84;5044895;28;19925;-89
2023/05/08 02:34:42;;;;;;;;;;;;;;;16.11;100.00;99737.84;5040262;28;19924;-90
2023/05/08 02:37:09;;;;;;;;;;;;;;;16.17;100.00;99745.13;5053510;28;20008;-87
2023/05/08 02:39:35;;;;;;;;;;;;;;;16.22;100.00;99737.44;5040616;28;19929;-86
2023/05/08 02:42:02;;;;;;;;;;;;;;;16.26;100.00;99744.06;5042681;28;19925;-87
2023/05/08 02:44:28;;;;;;;;;;;;;;;16.32;100.00;99748.69;5039485;28;20349;-88
2023/05/08 02:47:01;;;;;;;;;;;;;;;16.35;100.00;99751.03;5042604;28;20003;-88
2023/05/08 02:49:40;;;;;;;;;;;;;;;16.44;100.00;99747.28;5043989;28;19967;-88
2023/05/08 02:52:11;;;;;;;;;;;;;;;16.43;100.00;99752.81;5041139;28;19921;-89
2023/05/08 02:54:42;;;;;;;;;;;;;;;16.35;100.00;99753.69;5049763;28;19920;-89
2023/05/08 02:57:12;;;;;;;;;;;;;;;16.24;100.00;99756.75;5054251;28;19931;-87
2023/05/08 02:59:40;;;;;;;;;;;;;;;16.31;100.00;99757.72;5051329;28;20019;-85
2023/05/08 03:02:10;;;;;;;;;;;;;;;16.39;100.00;99752.31;5041847;28;19925;-87
2023/05/08 03:04:39;;;;;;;;;;;;;;;16.39;100.00;99750.50;5041657;28;19944;-87
2023/05/08 03:07:05;;;;;;;;;;;;;;;16.39;100.00;99749.66;5045794;28;19921;-87
2023/05/08 03:09:44;;;;;;;;;;;;;;;16.46;100.00;99750.63;5042081;28;20015;-86
2023/05/08 03:12:13;;;;;;;;;;;;;;;16.50;100.00;99762.56;5033725;28;19944;-90
2023/05/08 03:14:41;;;;;;;;;;;;;;;16.49;100.00;99760.94;5040692;28;19921;-89
2023/05/08 03:17:09;;;;;;;;;;;;;;;16.49;100.00;99758.28;5061493;28;19932;-92
2023/05/08 03:19:36;;;;;;;;;;;;;;;16.50;100.00;99767.91;5071614;28;20035;-93
2023/05/08 03:22:05;;;;;;;;;;;;;;;16.55;100.00;99760.22;5069055;28;19927;-91
2023/05/08 03:24:33;;;;;;;;;;;;;;;16.60;100.00;99768.56;5052601;28;19972;-91
2023/05/08 03:26:59;;;;;;;;;;;;;;;16.65;100.00;99771.53;5050643;28;19986;-91
2023/05/08 03:29:26;;;;;;;;;;;;;;;16.64;100.00;99777.03;5055684;28;19925;-87
2023/05/08 03:31:52;;;;;;;;;;;;;;;16.64;100.00;99780.50;5042065;28;20369;-89
2023/05/08 03:34:18;;;;;;;;;;;;;;;16.50;100.00;99778.56;5041166;28;19921;-87
2023/05/08 03:36:44;;;;;;;;;;;;;;;16.58;100.00;99775.03;5044398;28;19925;-88
2023/05/08 03:39:10;;;;;;;;;;;;;;;16.56;100.00;99779.69;5040752;28;19928;-88
2023/05/08 03:41:35;;;;;;;;;;;;;;;16.52;100.00;99784.56;5043319;28;19925;-87
2023/05/08 03:44:02;;;;;;;;;;;;;;;16.51;100.00;99785.56;5041814;28;20392;-83
2023/05/08 03:46:30;;;;;;;;;;;;;;;16.51;100.00;99785.56;5043909;28;20012;-84
2023/05/08 03:48:56;;;;;;;;;;;;;;;16.48;100.00;99785.91;5040346;28;20499;-84
2023/05/08 03:51:21;;;;;;;;;;;;;;;16.42;100.00;99789.28;5043969;28;19967;-89
2023/05/08 03:53:48;;;;;;;;;;;;;;;16.24;100.00;99788.69;5040395;28;19925;-88
2023/05/08 03:56:13;;;;;;;;;;;;;;;16.29;100.00;99781.00;5046899;28;19986;-89
2023/05/08 03:58:59;;;;;;;;;;;;;;;16.33;100.00;99785.81;5045417;28;20483;-92
2023/05/08 04:01:44;;;;;;;;;;;;;;;16.26;100.00;99792.00;5021017;28;19921;-92
2023/05/08 04:04:23;;;;;;;;;;;;;;;16.30;100.00;99782.69;5031172;28;19932;-92
2023/05/08 04:06:58;;;;;;;;;;;;;;;16.27;100.00;99793.66;5031755;28;20293;-93
2023/05/08 04:09:33;;;;;;;;;;;;;;;16.13;100.00;99797.06;5046674;28;19927;-88
2023/05/08 04:11:59;;;;;;;;;;;;;;;16.03;100.00;99801.75;5046383;28;19984;-90
2023/05/08 04:14:26;;;;;;;;;;;;;;;16.06;100.00;99796.09;5049398;28;19956;-90
2023/05/08 04:16:55;;;;;;;;;;;;;;;16.09;100.00;99793.06;5050932;28;19920;-91
2023/05/08 04:19:26;;;;;;;;;;;;;;;16.18;100.00;99800.03;5051062;28;19925;-91
2023/05/08 04:21:54;;;;;;;;;;;;;;;16.26;100.00;99798.16;5047922;28;19933;-92
2023/05/08 04:24:21;;;;;;;;;;;;;;;16.25;100.00;99796.53;5050504;28;19929;-92
2023/05/08 04:26:47;;;;;;;;;;;;;;;16.19;100.00;99796.38;5048568;28;19976;-89
2023/05/08 04:29:14;;;;;;;;;;;;;;;16.29;100.00;99802.31;5043908;28;19921;-88
2023/05/08 04:31:41;;;;;;;;;;;;;;;16.28;100.00;99805.97;5048809;28;19928;-87
2023/05/08 04:34:08;;;;;;;;;;;;;;;16.21;100.00;99805.84;5046510;28;19925;-84
2023/05/08 04:36:33;;;;;;;;;;;;;;;16.25;100.00;99801.84;5047071;28;20000;-88
2023/05/08 04:39:00;;;;;;;;;;;;;;;16.19;100.00;99807.84;5043697;28;20016;-87
2023/05/08 04:41:26;;;;;;;;;;;;;;;16.29;100.00;99818.28;5044802;28;19960;-88
2023/05/08 04:43:53;;;;;;;;;;;;;;;16.30;100.00;99817.28;5044260;28;20591;-88
2023/05/08 04:46:18;;;;;;;;;;;;;;;16.32;100.00;99812.59;5049055;28;19999;-90
2023/05/08 04:48:44;;;;;;;;;;;;;;;16.37;100.00;99810.28;5045626;28;19925;-88
2023/05/08 04:51:09;;;;;;;;;;;;;;;16.42;100.00;99813.25;5053784;28;20372;-93
2023/05/08 04:53:35;;;;;;;;;;;;;;;16.40;100.00;99817.91;5048086;28;19921;-92
2023/05/08 04:56:00;;;;;;;;;;;;;;;16.38;100.00;99820.75;5049572;28;19974;-92
2023/05/08 04:58:27;;;;;;;;;;;;;;;16.39;100.00;99819.75;5040699;28;20400;-92
2023/05/08 05:00:53;;;;;;;;;;;;;;;16.35;100.00;99817.59;5047476;28;20017;-91
2023/05/08 05:03:19;;;;;;;;;;;;;;;16.39;100.00;99813.59;5052465;28;19921;-93
2023/05/08 05:05:44;;;;;;;;;;;;;;;16.45;100.00;99820.88;5049424;28;19927;-92
2023/05/08 05:08:10;;;;;;;;;;;;;;;16.51;100.00;99817.50;5049145;28;19933;-91
2023/05/08 05:10:37;;;;;;;;;;;;;;;16.61;100.00;99823.47;5042990;28;19925;-89
2023/05/08 05:13:02;;;;;;;;;;;;;;;16.69;100.00;99828.78;5046807;28;19984;-90
2023/05/08 05:15:27;;;;;;;;;;;;;;;16.71;100.00;99826.78;5031559;28;19952;-91
2023/05/08 05:17:53;;;;;;;;;;;;;;;16.76;100.00;99826.25;5048379;28;20289;-92
2023/05/08 05:20:18;;;;;;;;;;;;;;;16.77;100.00;99834.06;5045795;28;19924;-87
2023/05/08 05:22:43;;;;;;;;;;;;;;;16.88;100.00;99832.00;5069090;28;19953;-85
2023/05/08 05:25:09;;;;;;;;;;;;;;;16.94;100.00;99834.78;5071227;28;20398;-90
2023/05/08 05:27:37;;;;;;;;;;;;;;;17.04;100.00;99840.72;5058175;28;19983;-87
2023/05/08 05:30:05;;;;;;;;;;;;;;;17.10;100.00;99844.50;5069115;28;19971;-93
2023/05/08 05:32:31;;;;;;;;;;;;;;;17.11;100.00;99841.66;5054927;28;20031;-84
2023/05/08 05:34:56;;;;;;;;;;;;;;;17.10;100.00;99849.84;5058395;28;19994;-89
2023/05/08 05:37:22;;;;;;;;;;;;;;;17.05;100.00;99852.22;5036657;28;19920;-87
2023/05/08 05:39:48;;;;;;;;;;;;;;;16.99;100.00;99847.59;5048734;28;19921;-89
2023/05/08 05:42:14;;;;;;;;;;;;;;;16.97;100.00;99844.25;5062023;28;19908;-94
2023/05/08 05:44:42;;;;;;;;;;;;;;;17.04;100.00;99850.53;5060523;28;19943;-94
2023/05/08 05:47:09;;;;;;;;;;;;;;;17.15;100.00;99847.47;5074357;28;19933;-95
2023/05/08 05:57:40;;;;;;;;;;;;;;;17.43;100.00;99856.59;2287377;23;19928;-88
2023/05/08 06:00:07;;;;;;;;;;;;;;;17.51;100.00;99859.19;5032507;28;20332;-88
2023/05/08 06:02:40;;;;;;;;;;;;;;;17.37;100.00;99856.50;5032075;28;19921;-91
2023/05/08 06:05:06;;;;;;;;;;;;;;;17.51;100.00;99859.19;5036405;28;19925;-91
2023/05/08 06:07:32;;;;;;;;;;;;;;;17.63;100.00;99856.94;5030677;28;19948;-88
2023/05/08 06:09:57;;;;;;;;;;;;;;;17.64;100.00;99857.78;5029605;28;19968;-83
2023/05/08 06:12:23;;;;;;;;;;;;;;;17.72;100.00;99860.38;5030459;28;19925;-83
2023/05/08 06:14:50;;;;;;;;;;;;;;;17.87;100.00;99859.38;5031026;28;19921;-83
2023/05/08 06:17:16;;;;;;;;;;;;;;;17.99;100.00;99857.09;5031062;28;19921;-83
2023/05/08 06:19:41;;;;;;;;;;;;;;;18.17;100.00;99868.25;5029612;28;20275;-83
2023/05/08 06:22:07;;;;;;;;;;;;;;;18.27;100.00;99860.78;5029561;28;20400;-83
2023/05/08 06:24:32;;;;;;;;;;;;;;;18.32;100.00;99863.72;5031009;28;20003;-83
2023/05/08 06:26:58;;;;;;;;;;;;;;;18.46;100.00;99863.91;5031158;28;20028;-82
2023/05/08 06:29:23;;;;;;;;;;;;;;;18.53;100.00;99867.50;5030605;28;19933;-83
2023/05/08 06:31:49;;;;;;;;;;;;;;;18.57;100.00;99877.66;5029665;28;19921;-83
2023/05/08 06:34:14;;;;;;;;;;;;;;;18.66;100.00;99878.41;5030466;28;20436;-82
2023/05/08 06:36:40;;;;;;;;;;;;;;;18.64;100.00;99875.06;5026627;28;19937;-82
2023/05/08 06:39:06;;;;;;;;;;;;;;;18.68;100.00;99881.69;5030412;28;19964;-82
2023/05/08 06:41:31;;;;;;;;;;;;;;;18.62;100.00;99887.78;5030164;28;19925;-83
2023/05/08 06:43:57;;;;;;;;;;;;;;;18.54;100.00;99888.69;5030397;28;19925;-83
2023/05/08 06:46:22;;;;;;;;;;;;;;;18.50;100.00;99892.72;5029961;28;20016;-83
2023/05/08 06:48:47;;;;;;;;;;;;;;;18.47;100.00;99893.13;5030404;28;19925;-82
2023/05/08 06:51:13;;;;;;;;;;;;;;;18.49;100.00;99885.75;5029570;28;19925;-82
2023/05/08 06:53:38;;;;;;;;;;;;;;;18.56;100.00;99888.53;5030377;28;20348;-83
2023/05/08 06:56:04;;;;;;;;;;;;;;;18.73;100.00;99892.69;5024928;28;19964;-83
2023/05/08 06:58:31;;;;;;;;;;;;;;;18.77;100.00;99889.44;5029774;28;19929;-82
2023/05/08 07:00:59;;;;;;;;;;;;;;;18.86;100.00;99895.47;5030541;28;19921;-82
2023/05/08 07:03:25;;;;;;;;;;;;;;;18.90;100.00;99894.13;5029409;28;19917;-83
2023/05/08 07:05:50;;;;;;;;;;;;;;;18.79;100.00;99892.72;5029750;28;20007;-82
2023/05/08 07:08:15;;;;;;;;;;;;;;;18.77;100.00;99900.13;5029813;28;19922;-83
2023/05/08 07:10:40;;;;;;;;;;;;;;;18.83;100.00;99906.56;5030365;28;20071;-85
2023/05/08 07:13:07;;;;;;;;;;;;;;;18.82;100.00;99896.88;5024799;28;19921;-83
2023/05/08 07:15:32;;;;;;;;;;;;;;;18.83;100.00;99903.06;5028706;28;19924;-82
2023/05/08 07:17:58;;;;;;;;;;;;;;;18.81;100.00;99900.56;5023481;28;19948;-83
2023/05/08 07:20:23;;;;;;;;;;;;;;;18.84;100.00;99902.88;5027101;28;20254;-83
2023/05/08 07:22:49;;;;;;;;;;;;;;;18.86;100.00;99903.50;5024394;28;19921;-82
2023/05/08 07:25:14;;;;;;;;;;;;;;;18.88;100.00;99901.47;5026296;28;20383;-83
2023/05/08 07:27:40;;;;;;;;;;;;;;;18.92;100.00;99909.94;5024573;28;19925;-81
2023/05/08 07:30:06;;;;;;;;;;;;;;;18.94;100.00;99905.25;5029843;28;19917;-84
2023/05/08 07:32:32;;;;;;;;;;;;;;;18.97;100.00;99905.69;5025072;28;19921;-82
2023/05/08 07:34:57;;;;;;;;;;;;;;;18.99;100.00;99909.03;5030118;28;19928;-84
2023/05/08 07:37:22;;;;;;;;;;;;;;;19.09;100.00;99909.53;5022386;28;19932;-84
2023/05/08 07:39:48;;;;;;;;;;;;;;;19.19;100.00;99898.56;5019489;28;19976;-84
2023/05/08 07:42:13;;;;;;;;;;;;;;;19.31;100.00;99896.19;5028987;28;19917;-84
2023/05/08 07:44:39;;;;;;;;;;;;;;;19.40;100.00;99903.06;5028141;28;20230;-84
2023/05/08 07:47:04;;;;;;;;;;;;;;;19.44;100.00;99902.50;5029695;28;19921;-84
2023/05/08 07:49:30;;;;;;;;;;;;;;;19.47;100.00;99895.97;5029106;28;19928;-84
2023/05/08 07:51:59;;;;;;;;;;;;;;;19.55;100.00;99903.88;5032987;28;19928;-84
2023/05/08 07:54:25;;;;;;;;;;;;;;;19.68;100.00;99901.28;5032992;28;19921;-84
2023/05/08 07:56:51;;;;;;;;;;;;;;;19.75;100.00;99896.84;5033553;28;19933;-83
2023/05/08 07:59:16;;;;;;;;;;;;;;;19.78;100.00;99898.31;5033038;28;20336;-84
2023/05/08 08:01:45;;;;;;;;;;;;;;;19.90;100.00;99886.88;5033661;28;19921;-83
2023/05/08 08:04:11;;;;;;;;;;;;;;;20.04;100.00;99893.13;5032591;28;20024;-84
2023/05/08 08:06:36;;;;;;;;;;;;;;;20.15;100.00;99889.06;5032954;28;20023;-84
2023/05/08 08:09:02;;;;;;;;;;;;;;;20.26;100.00;99891.22;5033147;28;19921;-84
2023/05/08 08:11:27;;;;;;;;;;;;;;;20.34;100.00;99888.41;5032823;28;19971;-84
2023/05/08 08:13:53;;;;;;;;;;;;;;;20.43;100.00;99888.06;5033022;28;19975;-83
2023/05/08 08:16:18;;;;;;;;;;;;;;;20.53;100.00;99887.69;5032965;28;19922;-83
2023/05/08 08:18:45;;;;;;;;;;;;;;;20.61;100.00;99884.84;5032745;28;19928;-84
2023/05/08 08:21:11;;;;;;;;;;;;;;;20.74;100.00;99889.44;5028489;28;19921;-82
2023/05/08 08:23:37;;;;;;;;;;;;;;;20.77;100.00;99900.59;5032719;28;20411;-84
2023/05/08 08:26:02;;;;;;;;;;;;;;;20.79;100.00;99893.16;5031871;28;20020;-83
2023/05/08 08:28:28;;;;;;;;;;;;;;;20.58;100.00;99890.59;5032476;28;20012;-83
2023/05/08 08:30:53;;;;;;;;;;;;;;;20.49;100.00;99886.44;5032710;28;19921;-83
2023/05/08 08:33:18;;;;;;;;;;;;;;;20.63;100.00;99884.63;5032143;28;19956;-82
2023/05/08 08:35:44;;;;;;;;;;;;;;;20.64;100.00;99884.44;5032529;28;19933;-84
2023/05/08 08:38:09;;;;;;;;;;;;;;;20.57;100.00;99883.59;5032177;28;19964;-84
2023/05/08 08:40:39;;;;;;;;;;;;;;;20.55;100.00;99885.66;5030981;28;20298;-84
2023/05/08 08:43:04;;;;;;;;;;;;;;;20.48;100.00;99892.00;5010495;28;20003;-83
2023/05/08 08:45:30;;;;;;;;;;;;;;;20.44;100.00;99891.56;5032293;28;20433;-83
2023/05/08 08:48:00;;;;;;;;;;;;;;;20.41;100.00;99895.47;5032648;28;19921;-83
2023/05/08 08:50:26;;;;;;;;;;;;;;;20.45;100.00;99895.91;5032000;28;19921;-83
2023/05/08 08:52:59;;;;;;;;;;;;;;;20.43;100.00;99884.56;5032336;28;19967;-83
2023/05/08 08:55:25;;;;;;;;;;;;;;;20.38;100.00;99885.13;5032233;28;19921;-84
2023/05/08 08:57:56;;;;;;;;;;;;;;;20.50;100.00;99887.28;5032578;28;19929;-83
2023/05/08 09:00:22;;;;;;;;;;;;;;;20.65;100.00;99886.09;5031867;28;20039;-83
2023/05/08 09:02:48;;;;;;;;;;;;;;;20.72;100.00;99881.59;5031022;28;20004;-83
2023/05/08 09:05:14;;;;;;;;;;;;;;;20.96;100.00;99876.72;5032352;28;20048;-84
2023/05/08 09:07:40;;;;;;;;;;;;;;;21.11;100.00;99874.69;5031759;28;19921;-83
2023/05/08 09:10:06;;;;;;;;;;;;;;;21.14;100.00;99880.50;5030785;28;20451;-83
2023/05/08 09:12:31;;;;;;;;;;;;;;;21.17;100.00;99879.28;5030529;28;19983;-82
2023/05/08 09:14:57;;;;;;;;;;;;;;;21.23;100.00;99875.78;5032546;28;19953;-83
2023/05/08 09:17:22;;;;;;;;;;;;;;;21.33;100.00;99873.53;5032264;28;19921;-83
2023/05/08 09:19:48;;;;;;;;;;;;;;;21.33;100.00;99884.25;5032433;28;20308;-83
2023/05/08 09:22:14;;;;;;;;;;;;;;;21.26;100.00;99878.09;5031264;28;20293;-83
2023/05/08 09:24:55;;;;;;;;;;;;;;;21.23;100.00;99878.47;5027917;28;19925;-83
2023/05/08 09:27:22;;;;;;;;;;;;;;;21.34;100.00;99885.91;5013649;28;19927;-84
2023/05/08 09:30:05;;;;;;;;;;;;;;;21.48;100.00;99887.59;5031582;28;19932;-83
2023/05/08 09:32:32;;;;;;;;;;;;;;;21.58;100.00;99888.00;5031538;28;19925;-82
2023/05/08 09:34:58;;;;;;;;;;;;;;;21.58;100.00;99893.38;5030682;28;20390;-83
2023/05/08 09:37:24;;;;;;;;;;;;;;;21.61;100.00;99892.16;5031320;28;20007;-83
2023/05/08 09:39:49;;;;;;;;;;;;;;;21.58;100.00;99893.38;5027371;28;19925;-83
2023/05/08 09:42:14;;;;;;;;;;;;;;;21.43;100.00;99890.09;5027454;28;19955;-82
2023/05/08 09:44:44;;;;;;;;;;;;;;;21.48;100.00;99890.28;5027808;28;20421;-83
2023/05/08 09:47:13;;;;;;;;;;;;;;;21.49;100.00;99900.00;5022520;28;19925;-83
2023/05/08 09:49:39;;;;;;;;;;;;;;;21.50;100.00;99893.56;5034360;28;19988;-81
2023/05/08 09:52:05;;;;;;;;;;;;;;;21.47;100.00;99898.53;5035257;28;19929;-81
2023/05/08 09:54:30;;;;;;;;;;;;;;;21.44;100.00;99901.66;5032252;28;19929;-82
2023/05/08 09:56:56;;;;;;;;;;;;;;;21.40;100.00;99901.22;5011054;28;19917;-83
2023/05/08 09:59:22;;;;;;;;;;;;;;;21.39;100.00;99907.59;5018989;28;19921;-82
2023/05/08 10:01:48;;;;;;;;;;;;;;;21.47;100.00;99911.97;5017815;28;19936;-83
2023/05/08 10:04:13;;;;;;;;;;;;;;;21.59;100.00;99911.16;5018131;28;20289;-82
2023/05/08 10:06:38;;;;;;;;;;;;;;;21.72;100.00;99910.34;5013228;28;20369;-82
2023/05/08 10:09:13;;;;;;;;;;;;;;;21.84;100.00;99907.88;5020680;28;20000;-83
2023/05/08 10:11:39;;;;;;;;;;;;;;;21.95;100.00;99915.34;5018861;28;19925;-82
2023/05/08 10:14:05;;;;;;;;;;;;;;;22.05;100.00;99903.13;5022341;28;20009;-84
2023/05/08 10:16:34;;;;;;;;;;;;;;;22.21;100.00;99904.53;5021008;28;19928;-82
2023/05/08 10:19:04;;;;;;;;;;;;;;;22.32;100.00;99906.63;5017543;28;19921;-83
2023/05/08 10:21:33;;;;;;;;;;;;;;;22.33;100.00;99902.84;5017129;28;19921;-82
2023/05/08 10:24:00;;;;;;;;;;;;;;;22.12;100.00;99905.81;5015071;28;19952;-83
2023/05/08 10:26:27;;;;;;;;;;;;;;;22.14;100.00;99903.75;5016890;28;19924;-82
2023/05/08 10:28:53;;;;;;;;;;;;;;;22.09;100.00;99902.72;5014890;28;20238;-82
2023/05/08 10:31:21;;;;;;;;;;;;;;;22.03;100.00;99897.13;5014914;28;19925;-82
2023/05/08 10:33:50;;;;;;;;;;;;;;;22.12;100.00;99900.44;5020586;28;20039;-84
2023/05/08 10:36:15;;;;;;;;;;;;;;;22.23;100.00;99902.47;5019368;28;19929;-84
2023/05/08 10:38:42;;;;;;;;;;;;;;;22.28;100.00;99899.97;5013430;28;19984;-85
2023/05/08 10:41:09;;;;;;;;;;;;;;;22.35;100.00;99897.28;5013533;28;20419;-85
2023/05/08 10:43:34;;;;;;;;;;;;;;;22.34;100.00;99893.75;5014777;28;19956;-86
2023/05/08 10:46:06;;;;;;;;;;;;;;;22.38;100.00;99905.75;5039677;28;19960;-85
2023/05/08 10:48:51;;;;;;;;;;;;;;;22.44;100.00;99894.16;5016252;28;20435;-85
2023/05/08 10:51:25;;;;;;;;;;;;;;;22.42;100.00;99890.84;5006851;28;19989;-85
2023/05/08 10:54:00;;;;;;;;;;;;;;;22.45;100.00;99895.81;5011857;28;20028;-84
2023/05/08 10:56:26;;;;;;;;;;;;;;;22.46;100.00;99892.06;5015078;28;19947;-85
2023/05/08 10:58:56;;;;;;;;;;;;;;;22.48;100.00;99893.72;5015842;28;19926;-85
2023/05/08 11:01:22;;;;;;;;;;;;;;;22.54;100.00;99882.13;5012823;28;19934;-85
2023/05/08 11:03:49;;;;;;;;;;;;;;;22.53;100.00;99875.09;5015000;28;21038;-85
2023/05/08 11:06:15;;;;;;;;;;;;;;;22.67;100.00;99882.09;5015898;28;20692;-85
2023/05/08 11:08:48;;;;;;;;;;;;;;;22.70;100.00;99873.56;5016416;28;19925;-85
2023/05/08 11:11:18;;;;;;;;;;;;;;;22.68;100.00;99875.69;5015938;28;21137;-84
2023/05/08 11:13:47;;;;;;;;;;;;;;;22.67;100.00;99876.72;5016893;28;19972;-85
2023/05/08 11:16:12;;;;;;;;;;;;;;;22.63;100.00;99870.09;5008142;28;19921;-85
2023/05/08 11:18:57;;;;;;;;;;;;;;;22.60;100.00;99865.16;5013140;28;20262;-85
2023/05/08 11:21:23;;;;;;;;;;;;;;;22.64;100.00;99871.75;5015564;28;19922;-86
2023/05/08 11:23:55;;;;;;;;;;;;;;;22.64;100.00;99871.75;5020109;28;19937;-84
2023/05/08 11:26:20;;;;;;;;;;;;;;;22.69;100.00;99871.91;5017486;28;20372;-81
2023/05/08 11:28:52;;;;;;;;;;;;;;;22.69;100.00;99869.22;5018961;28;20016;-84
2023/05/08 11:31:17;;;;;;;;;;;;;;;22.82;100.00;99858.44;5018322;28;19969;-85
2023/05/08 11:33:42;;;;;;;;;;;;;;;22.94;100.00;99867.50;5016304;28;19929;-84
2023/05/08 11:36:15;;;;;;;;;;;;;;;23.13;99.63;99865.75;5023421;28;19951;-83
2023/05/08 11:38:42;;;;;;;;;;;;;;;23.26;95.79;99861.09;5015786;28;19932;-86
2023/05/08 11:41:07;;;;;;;;;;;;;;;23.35;94.44;99868.91;5023947;28;20034;-90
2023/05/08 11:43:33;;;;;;;;;;;;;;;23.36;93.78;99865.16;5024150;28;20121;-86
2023/05/08 11:46:12;;;;;;;;;;;;;;;23.32;94.07;99853.19;5034359;28;19956;-86
2023/05/08 11:48:38;;;;;;;;;;;;;;;23.38;93.93;99857.72;4338483;28;10000755;-86
2023/05/08 11:51:05;;;;;;;;;;;;;;;23.56;93.80;99853.22;5029443;28;19935;-86
2023/05/08 11:53:31;;;;;;;;;;;;;;;23.63;93.45;99855.88;5031003;28;20023;-85
2023/05/08 11:55:57;;;;;;;;;;;;;;;23.62;91.97;99854.25;5031702;28;19929;-86
2023/05/08 11:58:23;;;;;;;;;;;;;;;23.47;90.37;99859.13;5029589;28;19932;-85
2023/05/08 12:00:48;;;;;;;;;;;;;;;23.33;91.20;99860.25;5031000;28;20000;-84
2023/05/08 12:03:15;;;;;;;;;;;;;;;23.37;92.01;99845.28;5030998;28;19944;-86
2023/05/08 12:05:41;;;;;;;;;;;;;;;23.37;92.74;99845.28;5045404;28;20014;-79
2023/05/08 12:08:07;;;;;;;;;;;;;;;23.34;91.91;99841.16;5025366;28;19976;-79
2023/05/08 12:10:37;;;;;;;;;;;;;;;23.47;90.66;99845.66;5029965;28;19925;-78
2023/05/08 12:13:14;;;;;;;;;;;;;;;23.60;89.29;99843.69;5022492;28;19929;-78
2023/05/08 12:15:39;;;;;;;;;;;;;;;23.87;88.53;99830.78;4320343;28;10000808;-76
2023/05/08 12:18:05;;;;;;;;;;;;;;;24.02;86.72;99827.75;5019546;28;19986;-76
2023/05/08 12:20:30;;;;;;;;;;;;;;;23.86;86.00;99829.13;5019640;28;20010;-77
2023/05/08 12:22:55;;;;;;;;;;;;;;;23.72;87.72;99830.31;5019397;28;20024;-76
2023/05/08 12:25:21;;;;;;;;;;;;;;;23.73;88.43;99823.88;5020984;28;19968;-76
2023/05/08 12:27:46;;;;;;;;;;;;;;;23.78;87.11;99834.81;5019721;28;19921;-78
2023/05/08 12:30:12;;;;;;;;;;;;;;;23.95;85.47;99833.19;5015953;28;19925;-79
2023/05/08 12:32:40;;;;;;;;;;;;;;;24.29;85.14;99828.28;5016939;28;19936;-77
2023/05/08 12:35:06;;;;;;;;;;;;;;;24.41;81.42;99821.09;5018687;28;19979;-77
2023/05/08 12:37:31;;;;;;;;;;;;;;;24.58;81.63;99815.91;5018485;28;19933;-78
2023/05/08 12:39:57;;;;;;;;;;;;;;;24.73;81.51;99814.47;5024511;28;19929;-79
2023/05/08 12:42:40;;;;;;;;;;;;;;;24.92;81.43;99815.25;5017381;28;19928;-79
2023/05/08 12:45:05;;;;;;;;;;;;;;;25.10;77.44;99820.59;5021787;28;19983;-78
2023/05/08 12:47:31;;;;;;;;;;;;;;;25.24;75.62;99822.06;5018589;28;20337;-76